createdAt,value
2022-09-27T00:00:43.168Z,8.43
2022-09-27T00:03:11.944Z,8.40
2022-09-27T00:05:40.743Z,8.15
2022-09-27T00:08:09.356Z,8.50
2022-09-27T00:10:39.299Z,10.55
2022-09-27T00:13:07.653Z,9.32
2022-09-27T00:15:36.082Z,9.63
2022-09-27T00:18:04.515Z,10.23
2022-09-27T00:20:33.050Z,8.43
2022-09-27T00:23:01.660Z,9.98
2022-09-27T00:25:29.971Z,8.70
2022-09-27T00:27:59.772Z,9.68
2022-09-27T00:30:29.852Z,8.18
2022-09-27T00:32:58.166Z,7.57
2022-09-27T00:35:26.844Z,9.35
2022-09-27T00:37:55.295Z,7.35
2022-09-27T00:40:24.364Z,7.25
2022-09-27T00:42:52.861Z,8.90
2022-09-27T00:45:22.753Z,8.68
2022-09-27T00:47:57.868Z,9.95
2022-09-27T00:50:31.452Z,10.27
2022-09-27T00:53:11.577Z,10.45
2022-09-27T00:55:44.524Z,9.93
2022-09-27T00:58:16.668Z,9.65
2022-09-27T01:00:49.878Z,9.57
2022-09-27T01:03:27.977Z,7.45
2022-09-27T01:05:57.035Z,9.23
2022-09-27T01:08:25.384Z,9.18
2022-09-27T01:11:09.033Z,13.18
2022-09-27T01:13:45.040Z,22.35
2022-09-27T01:16:26.600Z,27.08
2022-09-27T01:19:08.469Z,41.17
2022-09-27T01:21:49.877Z,40.85
2022-09-27T01:24:46.663Z,40.58
2022-09-27T01:27:57.256Z,41.33
2022-09-27T01:30:31.369Z,49.65
2022-09-27T01:33:15.241Z,43.08
2022-09-27T01:35:59.402Z,36.97
2022-09-27T01:38:41.021Z,37.13
2022-09-27T01:41:20.731Z,32.85
2022-09-27T01:44:14.251Z,32.95
2022-09-27T01:46:52.955Z,33.38
2022-09-27T01:49:37.125Z,36.83
2022-09-27T01:52:09.282Z,39.88
2022-09-27T01:54:43.001Z,34.67
2022-09-27T01:57:49.739Z,36.67
2022-09-27T02:00:23.614Z,37.17
2022-09-27T02:02:58.110Z,39.15
2022-09-27T02:05:37.539Z,39.78
2022-09-27T02:08:31.845Z,39.55
2022-09-27T02:11:10.217Z,42.85
2022-09-27T02:13:50.989Z,39.47
2022-09-27T02:16:51.375Z,37.13
2022-09-27T02:19:36.028Z,43.08
2022-09-27T02:22:16.411Z,37.35
2022-09-27T02:27:19.579Z,32.25
2022-09-27T02:29:55.719Z,22.98
2022-09-27T02:32:24.193Z,24.75
2022-09-27T02:34:56.046Z,23.58
2022-09-27T02:37:24.704Z,25.85
2022-09-27T02:39:53.266Z,28.67
2022-09-27T02:42:21.951Z,29.45
2022-09-27T02:44:50.725Z,23.27
2022-09-27T02:47:58.524Z,23.27
2022-09-27T02:50:46.242Z,20.35
2022-09-27T02:53:38.837Z,18.10
2022-09-27T02:56:35.796Z,20.52
2022-09-27T02:59:33.079Z,20.88
2022-09-27T03:02:50.379Z,18.15
2022-09-27T03:05:50.340Z,18.38
2022-09-27T03:08:20.258Z,23.45
2022-09-27T03:10:49.606Z,20.17
2022-09-27T03:13:18.123Z,19.52
2022-09-27T03:15:47.719Z,22.23
2022-09-27T03:18:35.081Z,19.38
2022-09-27T03:21:23.161Z,20.63
2022-09-27T03:23:51.488Z,17.80
2022-09-27T03:26:20.123Z,18.65
2022-09-27T03:28:48.465Z,27.13
2022-09-27T03:31:17.122Z,23.23
2022-09-27T03:34:14.763Z,17.98
2022-09-27T03:36:45.481Z,25.25
2022-09-27T03:39:13.845Z,29.58
2022-09-27T03:41:42.341Z,42.10
2022-09-27T03:44:11.085Z,41.13
2022-09-27T03:46:39.597Z,37.33
2022-09-27T03:49:08.065Z,26.58
2022-09-27T03:51:36.412Z,35.20
2022-09-27T03:54:06.418Z,32.95
2022-09-27T03:56:34.758Z,31.30
2022-09-27T03:59:03.758Z,26.25
2022-09-27T04:01:44.663Z,34.33
2022-09-27T04:04:33.033Z,35.67
2022-09-27T04:07:01.431Z,39.78
2022-09-27T04:09:31.392Z,32.35
2022-09-27T04:12:03.120Z,32.13
2022-09-27T04:14:31.872Z,37.65
2022-09-27T04:17:18.695Z,35.30
2022-09-27T04:20:22.409Z,35.05
2022-09-27T04:22:51.325Z,36.00
2022-09-27T04:25:21.359Z,30.83
2022-09-27T04:27:54.798Z,29.50
2022-09-27T04:30:24.581Z,33.88
2022-09-27T04:33:11.170Z,31.67
2022-09-27T04:36:05.829Z,30.55
2022-09-27T04:38:36.473Z,32.22
2022-09-27T04:41:07.263Z,31.08
2022-09-27T04:43:38.233Z,34.03
2022-09-27T04:46:07.859Z,32.85
2022-09-27T04:48:37.430Z,32.33
2022-09-27T04:51:06.002Z,30.90
2022-09-27T04:53:34.908Z,27.80
2022-09-27T04:56:06.188Z,25.50
2022-09-27T04:58:36.926Z,29.30
2022-09-27T05:01:05.986Z,37.47
2022-09-27T05:03:57.224Z,29.70
2022-09-27T05:06:26.928Z,25.42
2022-09-27T05:08:59.049Z,30.27
2022-09-27T05:11:29.728Z,19.05
2022-09-27T05:14:22.509Z,21.40
2022-09-27T05:19:52.260Z,25.48
2022-09-27T05:22:34.095Z,33.60
2022-09-27T05:25:02.487Z,29.15
2022-09-27T05:27:31.602Z,37.22
2022-09-27T05:30:02.093Z,44.72
2022-09-27T05:32:43.955Z,26.67
2022-09-27T05:35:35.861Z,22.80
2022-09-27T05:38:07.044Z,31.02
2022-09-27T05:40:41.189Z,30.38
2022-09-27T05:43:11.717Z,21.67
2022-09-27T05:45:41.650Z,25.83
2022-09-27T05:48:10.342Z,30.80
2022-09-27T05:50:45.908Z,18.67
2022-09-27T05:53:14.458Z,14.80
2022-09-27T05:55:43.609Z,14.50
2022-09-27T05:58:16.543Z,16.00
2022-09-27T06:00:50.118Z,12.40
2022-09-27T06:06:22.385Z,19.58
2022-09-27T06:08:56.077Z,18.55
2022-09-27T06:11:27.725Z,12.98
2022-09-27T06:13:56.362Z,16.55
2022-09-27T06:16:27.844Z,17.63
2022-09-27T06:18:56.549Z,16.15
2022-09-27T06:21:26.465Z,15.65
2022-09-27T06:23:59.308Z,14.50
2022-09-27T06:26:37.225Z,15.75
2022-09-27T06:29:16.998Z,14.30
2022-09-27T06:31:53.781Z,15.77
2022-09-27T06:34:28.938Z,18.63
2022-09-27T06:36:57.961Z,17.67
2022-09-27T06:39:27.601Z,16.13
2022-09-27T06:42:18.757Z,16.90
2022-09-27T06:44:59.659Z,15.77
2022-09-27T06:47:41.880Z,18.08
2022-09-27T06:50:25.436Z,13.77
2022-09-27T06:52:53.823Z,18.42
2022-09-27T06:55:22.467Z,17.90
2022-09-27T06:58:12.395Z,16.83
2022-09-27T07:00:46.319Z,16.38
2022-09-27T07:03:16.578Z,16.25
2022-09-27T07:06:20.442Z,19.45
2022-09-27T07:08:54.361Z,19.02
2022-09-27T07:11:26.200Z,12.95
2022-09-27T07:13:56.542Z,15.25
2022-09-27T07:16:25.349Z,13.27
2022-09-27T07:18:55.066Z,15.90
2022-09-27T07:21:23.878Z,14.60
2022-09-27T07:23:52.466Z,13.15
2022-09-27T07:26:21.148Z,15.13
2022-09-27T07:28:49.533Z,13.57
2022-09-27T07:31:19.084Z,12.35
2022-09-27T07:33:47.659Z,9.52
2022-09-27T07:36:17.474Z,11.75
2022-09-27T07:38:47.937Z,8.10
2022-09-27T07:41:19.609Z,7.25
2022-09-27T07:43:48.287Z,9.05
2022-09-27T07:46:17.049Z,8.80
2022-09-27T07:49:05.753Z,7.20
2022-09-27T07:51:56.485Z,8.07
2022-09-27T07:54:41.218Z,7.10
2022-09-27T07:57:42.563Z,8.35
2022-09-27T08:00:14.861Z,10.90
2022-09-27T08:02:45.804Z,11.32
2022-09-27T08:05:16.520Z,14.02
2022-09-27T08:07:46.291Z,13.48
2022-09-27T08:10:14.872Z,10.18
2022-09-27T08:12:43.487Z,5.78
2022-09-27T08:15:12.380Z,5.95
2022-09-27T08:17:41.365Z,6.85
2022-09-27T08:20:15.049Z,7.57
2022-09-27T08:23:04.411Z,10.02
2022-09-27T08:25:43.592Z,10.68
2022-09-27T08:28:28.026Z,13.32
2022-09-27T08:31:02.879Z,11.95
2022-09-27T08:33:34.133Z,11.73
2022-09-27T08:36:04.857Z,13.43
2022-09-27T08:38:34.631Z,13.25
2022-09-27T08:41:09.271Z,15.75
2022-09-27T08:43:46.316Z,14.45
2022-09-27T08:46:26.420Z,11.90
2022-09-27T08:49:06.023Z,12.32
2022-09-27T08:51:36.662Z,16.33
2022-09-27T08:54:10.300Z,8.07
2022-09-27T08:56:39.003Z,16.02
2022-09-27T08:59:14.675Z,14.73
2022-09-27T09:01:43.890Z,18.92
2022-09-27T09:07:03.161Z,10.70
2022-09-27T09:09:42.987Z,12.15
2022-09-27T09:12:48.198Z,19.95
2022-09-27T09:15:33.694Z,12.95
2022-09-27T09:18:24.084Z,9.30
2022-09-27T09:21:16.745Z,8.10
2022-09-27T09:24:12.809Z,9.70
2022-09-27T09:26:54.014Z,10.07
2022-09-27T09:29:36.986Z,9.13
2022-09-27T09:32:21.620Z,9.13
2022-09-27T09:34:56.537Z,10.13
2022-09-27T09:37:36.639Z,9.73
2022-09-27T09:40:09.313Z,8.07
2022-09-27T09:42:45.902Z,7.88
2022-09-27T09:45:18.765Z,7.43
2022-09-27T09:47:52.781Z,15.95
2022-09-27T09:50:27.022Z,16.13
2022-09-27T09:53:00.658Z,16.17
2022-09-27T09:55:34.669Z,13.15
2022-09-27T10:00:45.673Z,12.50
2022-09-27T10:03:14.388Z,8.75
2022-09-27T10:05:45.667Z,7.18
2022-09-27T10:08:19.862Z,8.13
2022-09-27T10:11:19.889Z,7.30
2022-09-27T10:13:55.790Z,7.55
2022-09-27T10:16:28.929Z,6.85
2022-09-27T10:19:03.844Z,8.00
2022-09-27T10:21:35.104Z,7.68
2022-09-27T10:24:12.242Z,8.95
2022-09-27T10:27:08.559Z,13.43
2022-09-27T10:29:40.252Z,19.40
2022-09-27T10:32:27.362Z,14.50
2022-09-27T10:35:32.947Z,9.23
2022-09-27T10:38:22.827Z,10.25
2022-09-27T10:40:55.419Z,9.40
2022-09-27T10:43:30.755Z,8.75
2022-09-27T10:46:24.128Z,9.25
2022-09-27T10:49:14.183Z,7.55
2022-09-27T10:51:44.697Z,9.77
2022-09-27T10:54:23.345Z,6.40
2022-09-27T10:57:01.481Z,7.15
2022-09-27T10:59:33.135Z,11.52
2022-09-27T11:02:04.888Z,7.05
2022-09-27T11:04:40.326Z,6.78
2022-09-27T11:07:20.208Z,6.50
2022-09-27T11:10:03.278Z,7.78
2022-09-27T11:12:36.787Z,7.43
2022-09-27T11:15:08.795Z,6.07
2022-09-27T11:17:53.253Z,6.03
2022-09-27T11:20:32.313Z,5.90
2022-09-27T11:23:24.994Z,6.00
2022-09-27T11:26:08.046Z,5.72
2022-09-27T11:28:51.030Z,10.50
2022-09-27T11:31:43.034Z,7.82
2022-09-27T11:34:38.763Z,6.20
2022-09-27T11:37:17.979Z,6.55
2022-09-27T11:40:03.771Z,7.13
2022-09-27T11:42:51.957Z,5.85
2022-09-27T11:45:50.558Z,6.07
2022-09-27T11:48:38.874Z,4.97
2022-09-27T11:51:26.699Z,6.38
2022-09-27T11:54:17.198Z,4.45
2022-09-27T11:56:57.397Z,6.38
2022-09-27T11:59:45.389Z,5.65
2022-09-27T12:02:33.535Z,3.88
2022-09-27T12:05:19.883Z,6.95
2022-09-27T12:08:14.692Z,6.72
2022-09-27T12:10:48.291Z,5.47
2022-09-27T12:13:30.831Z,7.75
2022-09-27T12:16:00.314Z,2.80
2022-09-27T12:18:39.277Z,7.07
2022-09-27T12:21:26.695Z,6.25
2022-09-27T12:23:59.194Z,6.88
2022-09-27T12:26:41.183Z,6.22
2022-09-27T12:29:16.605Z,7.78
2022-09-27T12:31:51.983Z,6.68
2022-09-27T12:34:28.178Z,7.38
2022-09-27T12:37:04.079Z,3.55
2022-09-27T12:39:44.704Z,4.53
2022-09-27T12:42:26.231Z,5.47
2022-09-27T12:45:00.463Z,8.75
2022-09-27T12:47:52.707Z,6.30
2022-09-27T12:50:31.223Z,9.45
2022-09-27T12:53:05.604Z,5.80
2022-09-27T12:56:00.653Z,6.90
2022-09-27T12:59:00.445Z,7.22
2022-09-27T13:01:43.727Z,7.82
2022-09-27T13:04:37.265Z,6.53
2022-09-27T13:07:24.763Z,6.45
2022-09-27T13:10:12.065Z,9.85
2022-09-27T13:12:49.877Z,5.20
2022-09-27T13:15:27.800Z,7.72
2022-09-27T13:17:59.809Z,7.30
2022-09-27T13:20:46.616Z,8.48
2022-09-27T13:24:03.782Z,8.82
2022-09-27T13:26:49.942Z,9.68
2022-09-27T13:29:33.977Z,11.68
2022-09-27T13:32:21.179Z,11.52
2022-09-27T13:35:13.816Z,12.23
2022-09-27T13:37:50.944Z,7.88
2022-09-27T13:40:34.192Z,6.30
2022-09-27T13:43:28.264Z,7.60
2022-09-27T13:46:07.995Z,11.68
2022-09-27T13:48:51.515Z,7.25
2022-09-27T13:51:30.260Z,9.10
2022-09-27T13:54:00.843Z,6.45
2022-09-27T13:56:51.791Z,8.27
2022-09-27T13:59:31.419Z,8.30
2022-09-27T14:02:22.613Z,7.15
2022-09-27T14:04:53.038Z,7.30
2022-09-27T14:07:26.221Z,5.28
2022-09-27T14:10:00.732Z,6.68
2022-09-27T14:12:36.001Z,5.82
2022-09-27T14:15:10.371Z,5.55
2022-09-27T14:17:45.990Z,7.65
2022-09-27T14:20:33.101Z,10.88
2022-09-27T14:23:03.848Z,5.18
2022-09-27T14:25:40.713Z,8.95
2022-09-27T14:28:24.823Z,11.07
2022-09-27T14:31:09.492Z,10.43
2022-09-27T14:34:10.362Z,6.15
2022-09-27T14:37:01.940Z,8.38
2022-09-27T14:39:38.260Z,11.68
2022-09-27T14:42:36.696Z,7.50
2022-09-27T14:45:16.308Z,7.22
2022-09-27T14:47:48.630Z,8.00
2022-09-27T14:50:25.791Z,5.57
2022-09-27T14:52:56.486Z,11.52
2022-09-27T14:55:28.893Z,6.93
2022-09-27T14:57:59.493Z,10.65
2022-09-27T15:00:32.347Z,10.60
2022-09-27T15:03:11.239Z,15.10
2022-09-27T15:05:43.434Z,10.35
2022-09-27T15:08:15.335Z,8.75
2022-09-27T15:10:45.216Z,8.93
2022-09-27T15:13:18.668Z,7.72
2022-09-27T15:18:34.833Z,11.45
2022-09-27T15:21:06.493Z,15.60
2022-09-27T15:23:38.140Z,11.80
2022-09-27T15:26:12.813Z,10.18
2022-09-27T15:28:45.478Z,10.05
2022-09-27T15:31:15.413Z,11.82
2022-09-27T15:33:54.463Z,13.45
2022-09-27T15:36:56.359Z,8.73
2022-09-27T15:39:35.721Z,8.25
2022-09-27T15:42:09.020Z,7.50
2022-09-27T15:44:46.403Z,8.82
2022-09-27T15:47:49.241Z,10.65
2022-09-27T15:50:38.346Z,10.07
2022-09-27T15:53:09.472Z,8.32
2022-09-27T15:55:43.839Z,14.60
2022-09-27T15:58:20.183Z,10.88
2022-09-27T16:00:57.163Z,12.77
2022-09-27T16:03:27.339Z,10.45
2022-09-27T16:05:57.870Z,7.95
2022-09-27T16:08:29.164Z,10.70
2022-09-27T16:10:59.718Z,10.30
2022-09-27T16:13:32.785Z,6.97
2022-09-27T16:16:03.244Z,7.68
2022-09-27T16:18:34.874Z,8.57
2022-09-27T16:21:03.339Z,9.75
2022-09-27T16:23:33.065Z,13.68
2022-09-27T16:26:01.500Z,8.43
2022-09-27T16:28:30.084Z,11.60
2022-09-27T16:31:06.579Z,13.57
2022-09-27T16:33:36.085Z,10.60
2022-09-27T16:36:15.622Z,12.27
2022-09-27T16:38:50.258Z,7.53
2022-09-27T16:41:19.483Z,9.82
2022-09-27T16:43:48.510Z,11.43
2022-09-27T16:46:19.251Z,8.00
2022-09-27T16:48:49.752Z,10.55
2022-09-27T16:51:37.188Z,10.30
2022-09-27T16:54:11.047Z,8.05
2022-09-27T16:56:40.090Z,8.95
2022-09-27T16:59:12.876Z,7.05
2022-09-27T17:01:41.255Z,10.10
2022-09-27T17:04:10.076Z,11.02
2022-09-27T17:06:38.858Z,9.57
2022-09-27T17:09:08.827Z,12.90
2022-09-27T17:11:37.729Z,9.90
2022-09-27T17:14:06.264Z,13.70
2022-09-27T17:16:34.987Z,12.20
2022-09-27T17:19:03.620Z,11.30
2022-09-27T17:21:37.120Z,11.00
2022-09-27T17:24:08.626Z,11.32
2022-09-27T17:26:37.323Z,9.68
2022-09-27T17:29:05.874Z,11.00
2022-09-27T17:31:35.060Z,7.85
2022-09-27T17:34:04.034Z,9.50
2022-09-27T17:36:35.901Z,7.47
2022-09-27T17:39:05.724Z,7.88
2022-09-27T17:41:40.201Z,7.97
2022-09-27T17:44:09.263Z,9.48
2022-09-27T17:46:38.771Z,8.65
2022-09-27T17:49:24.946Z,10.50
2022-09-27T17:51:54.641Z,12.30
2022-09-27T17:54:26.380Z,11.20
2022-09-27T17:56:57.459Z,11.45
2022-09-27T17:59:27.286Z,12.60
2022-09-27T18:01:56.080Z,18.63
2022-09-27T18:04:27.742Z,9.82
2022-09-27T18:06:56.940Z,9.50
2022-09-27T18:09:25.660Z,9.90
2022-09-27T18:11:55.802Z,9.55
2022-09-27T18:14:26.888Z,8.18
2022-09-27T18:16:57.944Z,8.88
2022-09-27T18:19:26.824Z,8.35
2022-09-27T18:21:55.570Z,9.80
2022-09-27T18:24:26.652Z,10.85
2022-09-27T18:26:57.340Z,10.20
2022-09-27T18:29:25.866Z,6.30
2022-09-27T18:31:55.378Z,7.63
2022-09-27T18:34:25.654Z,7.75
2022-09-27T18:36:54.115Z,8.80
2022-09-27T18:39:22.620Z,9.18
2022-09-27T18:41:51.523Z,8.07
2022-09-27T18:44:21.420Z,10.63
2022-09-27T18:46:52.297Z,14.48
2022-09-27T18:49:24.934Z,11.70
2022-09-27T18:51:55.387Z,8.02
2022-09-27T18:54:24.198Z,8.02
2022-09-27T18:56:53.936Z,8.18
2022-09-27T18:59:24.166Z,8.07
2022-09-27T19:01:52.954Z,7.75
2022-09-27T19:04:24.948Z,7.45
2022-09-27T19:06:54.597Z,9.75
2022-09-27T19:09:23.310Z,9.38
2022-09-27T19:11:51.729Z,8.82
2022-09-27T19:14:25.035Z,11.77
2022-09-27T19:19:24.420Z,8.43
2022-09-27T19:21:52.766Z,8.55
2022-09-27T19:24:21.245Z,9.43
2022-09-27T19:26:53.709Z,11.70
2022-09-27T19:29:22.186Z,9.95
2022-09-27T19:31:51.171Z,9.82
2022-09-27T19:34:21.229Z,13.50
2022-09-27T19:36:49.574Z,10.40
2022-09-27T19:39:18.180Z,14.55
2022-09-27T19:41:46.412Z,10.63
2022-09-27T19:44:14.848Z,8.90
2022-09-27T19:46:45.337Z,11.65
2022-09-27T19:49:13.781Z,11.27
2022-09-27T19:51:43.483Z,10.00
2022-09-27T19:54:12.932Z,8.65
2022-09-27T19:56:41.192Z,10.05
2022-09-27T19:59:09.600Z,8.40
2022-09-27T20:01:38.683Z,14.02
2022-09-27T20:04:07.084Z,8.02
2022-09-27T20:06:35.734Z,9.95
2022-09-27T20:09:05.534Z,9.52
2022-09-27T20:11:34.843Z,35.70
2022-09-27T20:14:03.336Z,7.53
2022-09-27T20:16:32.308Z,9.60
2022-09-27T20:19:02.042Z,9.45
2022-09-27T20:21:32.780Z,7.93
2022-09-27T20:24:03.010Z,10.30
2022-09-27T20:26:34.662Z,10.13
2022-09-27T20:29:05.082Z,9.85
2022-09-27T20:31:37.235Z,7.13
2022-09-27T20:34:07.380Z,7.30
2022-09-27T20:36:38.015Z,7.45
2022-09-27T20:39:08.233Z,9.98
2022-09-27T20:41:39.529Z,8.27
2022-09-27T20:44:09.656Z,8.65
2022-09-27T20:46:39.697Z,5.65
2022-09-27T20:49:10.577Z,7.30
2022-09-27T20:51:40.918Z,8.52
2022-09-27T20:54:11.111Z,7.95
2022-09-27T20:56:42.080Z,9.13
2022-09-27T20:59:16.428Z,6.20
2022-09-27T21:01:46.191Z,6.35
2022-09-27T21:04:16.838Z,7.78
2022-09-27T21:06:45.982Z,6.15
2022-09-27T21:09:18.840Z,4.88
2022-09-27T21:11:51.948Z,6.25
2022-09-27T21:14:20.725Z,7.15
2022-09-27T21:16:49.120Z,5.32
2022-09-27T21:19:17.749Z,5.38
2022-09-27T21:21:46.260Z,6.18
2022-09-27T21:24:14.544Z,7.07
2022-09-27T21:26:43.521Z,7.22
2022-09-27T21:29:15.227Z,5.10
2022-09-27T21:31:44.011Z,7.25
2022-09-27T21:34:12.302Z,8.35
2022-09-27T21:36:40.636Z,6.68
2022-09-27T21:39:10.651Z,6.45
2022-09-27T21:41:40.464Z,5.00
2022-09-27T21:44:11.511Z,8.65
2022-09-27T21:46:43.553Z,5.53
2022-09-27T21:49:12.174Z,8.35
2022-09-27T21:51:42.524Z,4.75
2022-09-27T21:54:13.587Z,4.18
2022-09-27T21:56:42.589Z,4.65
2022-09-27T21:59:15.254Z,6.80
2022-09-27T22:01:46.823Z,5.47
2022-09-27T22:04:15.205Z,5.50
2022-09-27T22:06:43.694Z,4.25
2022-09-27T22:09:15.035Z,4.28
2022-09-27T22:11:46.425Z,5.38
2022-09-27T22:14:15.816Z,4.25
2022-09-27T22:16:45.463Z,4.90
2022-09-27T22:19:15.447Z,5.68
2022-09-27T22:21:44.518Z,5.18
2022-09-27T22:24:15.278Z,5.82
2022-09-27T22:26:46.560Z,6.45
2022-09-27T22:29:15.452Z,4.82
2022-09-27T22:31:45.211Z,3.85
2022-09-27T22:34:19.013Z,3.83
2022-09-27T22:36:47.946Z,5.45
2022-09-27T22:39:16.328Z,4.78
2022-09-27T22:41:44.753Z,3.92
2022-09-27T22:44:13.124Z,5.00
2022-09-27T22:46:41.598Z,5.45
2022-09-27T22:49:11.310Z,4.20
2022-09-27T22:51:39.634Z,4.70
2022-09-27T22:54:07.964Z,3.78
2022-09-27T22:56:36.295Z,4.65
2022-09-27T22:59:04.662Z,5.28
2022-09-27T23:01:32.906Z,8.20
2022-09-27T23:04:01.280Z,9.65
2022-09-27T23:06:32.138Z,5.60
2022-09-27T23:09:02.769Z,6.70
2022-09-27T23:11:31.649Z,4.97
2022-09-27T23:13:59.905Z,5.40
2022-09-27T23:16:28.201Z,4.25
2022-09-27T23:18:58.005Z,5.35
2022-09-27T23:21:28.797Z,5.03
2022-09-27T23:23:59.821Z,8.57
2022-09-27T23:26:29.066Z,4.93
2022-09-27T23:28:59.044Z,6.50
2022-09-27T23:31:29.863Z,5.90
2022-09-27T23:33:59.320Z,5.55
2022-09-27T23:36:29.245Z,8.70
2022-09-27T23:39:00.408Z,4.35
2022-09-27T23:41:28.717Z,6.05
2022-09-27T23:43:57.387Z,5.90
2022-09-27T23:46:25.976Z,5.22
2022-09-27T23:48:54.639Z,5.47
2022-09-27T23:51:23.085Z,6.07
2022-09-27T23:53:51.309Z,6.53
2022-09-27T23:56:20.904Z,7.85
2022-09-27T23:58:49.288Z,6.00
